Time;durP1;ratioP1;P1;durP2;ratioP2;P2;SDS_P1;SDS_P2;PMS_P1;PMS_P2;Temp;Humidity;BMP_temperature;BMP_pressure;BME280_temperature;BME280_humidity;BME280_pressure;Samples;Min_cycle;Max_cycle;Signal;HPM_P1;HPM_P2
2020/12/20 00:02:09;;;;;;;9.93;5.80;;;8.10;99.90;;;;;;5054349;28;20215;-56
2020/12/20 00:04:36;;;;;;;9.57;6.00;;;8.00;99.90;;;;;;5051742;28;20203;-54
2020/12/20 00:07:02;;;;;;;8.40;5.70;;;8.20;99.90;;;;;;5042529;28;20219;-58
2020/12/20 00:09:28;;;;;;;7.73;5.30;;;8.10;99.90;;;;;;5050308;28;20207;-58
2020/12/20 00:11:56;;;;;;;9.50;6.00;;;8.30;99.90;;;;;;5053755;28;20692;-56
2020/12/20 00:14:30;;;;;;;9.77;6.10;;;8.30;99.90;;;;;;5053668;28;20210;-58
2020/12/20 00:17:02;;;;;;;9.67;6.00;;;8.30;99.90;;;;;;5054224;28;20195;-54
2020/12/20 00:19:29;;;;;;;7.40;5.47;;;8.30;99.90;;;;;;5052878;28;20256;-57
2020/12/20 00:21:58;;;;;;;11.03;6.40;;;8.30;99.90;;;;;;5054035;28;20209;-57
2020/12/20 00:24:24;;;;;;;9.63;6.07;;;8.30;99.90;;;;;;5053728;28;20195;-58
2020/12/20 00:26:51;;;;;;;11.20;6.27;;;8.30;99.90;;;;;;5053681;28;20219;-59
2020/12/20 00:29:18;;;;;;;8.73;5.60;;;8.40;99.90;;;;;;5053588;28;20225;-58
2020/12/20 00:31:45;;;;;;;7.53;5.33;;;8.40;99.90;;;;;;5053918;28;20205;-57
2020/12/20 00:34:11;;;;;;;9.50;5.63;;;8.40;99.90;;;;;;5053346;28;20206;-57
2020/12/20 00:36:38;;;;;;;10.60;6.07;;;8.40;99.90;;;;;;5053756;28;20199;-57
2020/12/20 00:39:05;;;;;;;9.23;6.40;;;8.40;99.90;;;;;;5053579;28;20199;-53
2020/12/20 00:41:32;;;;;;;8.60;6.03;;;8.40;99.90;;;;;;5053412;28;20203;-56
2020/12/20 00:43:58;;;;;;;9.10;6.07;;;8.30;99.90;;;;;;5050590;28;20223;-55
2020/12/20 00:46:24;;;;;;;9.37;6.27;;;8.30;99.90;;;;;;5046054;28;20218;-57
2020/12/20 00:48:51;;;;;;;8.57;5.80;;;8.30;99.90;;;;;;5041735;28;20207;-55
2020/12/20 00:51:18;;;;;;;9.33;6.50;;;8.20;99.90;;;;;;5053574;28;20210;-59
2020/12/20 00:53:44;;;;;;;8.47;6.43;;;8.30;99.90;;;;;;5052105;28;20223;-55
2020/12/20 00:56:13;;;;;;;7.97;5.43;;;8.20;99.90;;;;;;5052597;28;20666;-57
2020/12/20 00:58:40;;;;;;;8.20;5.80;;;8.20;99.90;;;;;;5052953;28;20199;-53
2020/12/20 01:01:08;;;;;;;7.90;5.77;;;8.20;99.90;;;;;;5053823;28;20217;-54
2020/12/20 01:03:35;;;;;;;8.40;5.53;;;8.10;99.90;;;;;;5052644;28;20255;-59
2020/12/20 01:06:02;;;;;;;8.37;5.87;;;8.10;99.90;;;;;;5052617;28;20633;-57
2020/12/20 01:08:28;;;;;;;11.27;6.30;;;8.10;99.90;;;;;;5052974;28;20199;-57
2020/12/20 01:10:54;;;;;;;8.33;6.00;;;8.10;99.90;;;;;;5052755;28;20211;-54
2020/12/20 01:13:21;;;;;;;8.33;6.10;;;8.10;99.90;;;;;;5052932;28;20237;-56
2020/12/20 01:15:47;;;;;;;8.70;6.60;;;8.10;99.90;;;;;;5053154;28;20202;-58
2020/12/20 01:18:14;;;;;;;9.27;6.90;;;8.10;99.90;;;;;;5050323;28;20214;-56
2020/12/20 01:20:40;;;;;;;8.07;6.00;;;8.00;99.90;;;;;;5051881;28;20198;-54
2020/12/20 01:23:07;;;;;;;8.77;6.23;;;8.00;99.90;;;;;;5052348;28;20249;-59
2020/12/20 01:25:33;;;;;;;10.43;6.00;;;8.00;99.90;;;;;;5050823;28;20217;-54
2020/12/20 01:28:00;;;;;;;10.13;6.20;;;8.10;99.90;;;;;;5052962;28;20198;-57
2020/12/20 01:30:26;;;;;;;10.00;5.67;;;8.10;99.90;;;;;;5052577;28;20256;-57
2020/12/20 01:32:52;;;;;;;9.03;6.17;;;8.20;99.90;;;;;;5052958;28;20234;-50
2020/12/20 01:35:18;;;;;;;9.93;6.90;;;8.30;99.90;;;;;;5052101;28;20665;-57
2020/12/20 01:37:45;;;;;;;11.53;7.03;;;8.30;99.90;;;;;;5051938;28;20206;-56
2020/12/20 01:40:12;;;;;;;11.13;8.00;;;8.20;99.90;;;;;;5052318;28;20241;-57
2020/12/20 01:42:38;;;;;;;10.13;6.00;;;8.10;99.90;;;;;;5051697;28;20219;-56
2020/12/20 01:45:05;;;;;;;9.13;6.33;;;8.10;99.90;;;;;;5052699;28;20206;-55
2020/12/20 01:47:33;;;;;;;8.87;5.67;;;8.10;99.90;;;;;;5051542;28;20280;-56
2020/12/20 01:50:00;;;;;;;10.37;5.67;;;8.20;99.90;;;;;;5052134;28;20202;-59
2020/12/20 01:52:27;;;;;;;9.33;5.53;;;8.30;99.90;;;;;;5051568;28;20279;-59
2020/12/20 01:54:57;;;;;;;8.67;5.50;;;8.20;99.90;;;;;;5051313;28;20203;-59
2020/12/20 01:57:24;;;;;;;9.23;6.07;;;8.20;99.90;;;;;;5049809;28;20198;-58
2020/12/20 01:59:51;;;;;;;9.60;6.00;;;8.10;99.90;;;;;;5046335;28;20670;-56
2020/12/20 02:02:17;;;;;;;8.87;5.87;;;8.10;99.90;;;;;;5052154;28;20233;-56
2020/12/20 02:04:44;;;;;;;9.53;6.27;;;8.00;99.90;;;;;;5040730;28;20196;-56
2020/12/20 02:07:10;;;;;;;9.40;6.60;;;8.00;99.90;;;;;;5051707;28;20219;-58
2020/12/20 02:09:37;;;;;;;8.63;5.83;;;8.00;99.90;;;;;;5052047;28;20697;-56
2020/12/20 02:12:04;;;;;;;10.43;6.53;;;8.00;99.90;;;;;;5050493;28;20215;-56
2020/12/20 02:14:31;;;;;;;8.70;5.90;;;8.00;99.90;;;;;;5049443;28;20199;-54
2020/12/20 02:16:58;;;;;;;7.17;5.37;;;8.10;99.90;;;;;;5050135;28;20273;-54
2020/12/20 02:19:25;;;;;;;11.23;7.00;;;8.00;99.90;;;;;;5049977;28;20211;-59
2020/12/20 02:21:52;;;;;;;8.77;6.20;;;8.10;99.90;;;;;;5044498;28;20204;-55
2020/12/20 02:24:19;;;;;;;10.17;6.20;;;8.00;99.90;;;;;;5031966;28;20192;-57
2020/12/20 02:26:46;;;;;;;8.40;6.03;;;8.00;99.90;;;;;;5040815;28;20223;-53
2020/12/20 02:29:12;;;;;;;12.53;7.30;;;8.00;99.90;;;;;;5031323;28;20266;-55
2020/12/20 02:31:39;;;;;;;10.03;6.83;;;8.00;99.90;;;;;;5047383;28;20295;-53
2020/12/20 02:34:05;;;;;;;11.50;6.90;;;8.00;99.90;;;;;;5051022;28;20658;-57
2020/12/20 02:36:31;;;;;;;11.30;6.50;;;7.90;99.90;;;;;;5049190;28;20199;-57
2020/12/20 02:38:59;;;;;;;14.57;8.27;;;7.90;99.90;;;;;;5046603;28;20211;-57
2020/12/20 02:41:25;;;;;;;11.03;6.70;;;7.80;99.90;;;;;;5044854;28;20290;-56
2020/12/20 02:43:52;;;;;;;10.63;6.97;;;7.80;99.90;;;;;;5050835;28;20772;-58
2020/12/20 02:46:18;;;;;;;9.97;6.97;;;7.90;99.90;;;;;;5050144;28;20210;-57
2020/12/20 02:48:45;;;;;;;12.67;7.37;;;7.90;99.90;;;;;;5051346;28;20217;-54
2020/12/20 02:51:12;;;;;;;9.60;6.73;;;7.80;99.90;;;;;;5051370;28;20248;-56
2020/12/20 02:53:38;;;;;;;8.87;6.27;;;7.60;99.90;;;;;;5050915;28;20704;-56
2020/12/20 02:56:05;;;;;;;10.03;6.60;;;7.40;99.90;;;;;;5051614;28;20195;-54
2020/12/20 02:58:31;;;;;;;10.47;6.90;;;7.40;99.90;;;;;;5054446;28;20191;-58
2020/12/20 03:00:58;;;;;;;9.67;6.73;;;7.40;99.90;;;;;;5057854;28;20673;-56
2020/12/20 03:03:24;;;;;;;11.73;7.43;;;7.40;99.90;;;;;;5057616;28;20222;-53
2020/12/20 03:05:50;;;;;;;13.53;9.83;;;7.50;99.90;;;;;;5057093;28;20209;-57
2020/12/20 03:08:17;;;;;;;13.90;9.27;;;7.50;99.90;;;;;;5056945;28;20202;-55
2020/12/20 03:10:43;;;;;;;11.50;7.80;;;7.40;99.90;;;;;;5056965;28;20198;-56
2020/12/20 03:13:10;;;;;;;10.03;7.07;;;7.30;99.90;;;;;;5057220;28;20215;-58
2020/12/20 03:15:38;;;;;;;10.33;7.37;;;7.50;99.90;;;;;;5053714;28;20210;-58
2020/12/20 03:18:04;;;;;;;12.50;7.20;;;7.40;99.90;;;;;;5038902;28;20728;-57
2020/12/20 03:20:31;;;;;;;11.10;7.23;;;7.40;99.90;;;;;;5057364;28;20579;-57
2020/12/20 03:22:59;;;;;;;12.27;7.57;;;7.40;99.90;;;;;;5056316;28;20229;-57
2020/12/20 03:25:25;;;;;;;10.23;7.03;;;7.30;99.90;;;;;;5056142;28;20604;-58
2020/12/20 03:27:51;;;;;;;11.53;6.97;;;7.30;99.90;;;;;;5057856;28;20225;-57
2020/12/20 03:30:19;;;;;;;12.57;7.63;;;7.30;99.90;;;;;;5057392;28;20207;-56
2020/12/20 03:32:45;;;;;;;11.33;7.00;;;7.30;99.90;;;;;;5057093;28;20596;-55
2020/12/20 03:35:12;;;;;;;10.87;7.23;;;7.30;99.90;;;;;;5057652;28;20209;-59
2020/12/20 03:37:38;;;;;;;11.10;7.37;;;7.30;99.90;;;;;;5057789;28;20206;-59
2020/12/20 03:40:05;;;;;;;14.27;8.17;;;7.30;99.90;;;;;;5057266;28;20281;-55
2020/12/20 03:42:31;;;;;;;10.23;7.37;;;7.20;99.90;;;;;;5057755;28;20223;-55
2020/12/20 03:44:57;;;;;;;11.60;7.83;;;7.30;99.90;;;;;;5056819;28;20211;-59
2020/12/20 03:47:25;;;;;;;11.93;7.90;;;7.30;99.90;;;;;;5057514;28;20709;-53
2020/12/20 03:49:51;;;;;;;13.33;7.70;;;7.20;99.90;;;;;;5054322;28;20203;-55
2020/12/20 03:52:17;;;;;;;14.70;7.80;;;7.20;99.90;;;;;;5051550;28;20637;-56
2020/12/20 03:54:43;;;;;;;13.00;7.67;;;7.20;99.90;;;;;;5056540;28;20199;-57
2020/12/20 03:57:10;;;;;;;12.60;8.03;;;7.30;99.90;;;;;;5056935;28;20684;-55
2020/12/20 03:59:39;;;;;;;11.17;7.63;;;7.30;99.90;;;;;;5056182;28;20199;-55
2020/12/20 04:02:05;;;;;;;13.57;9.23;;;7.30;99.90;;;;;;5057229;28;20226;-57
2020/12/20 04:04:33;;;;;;;13.43;9.33;;;7.40;99.90;;;;;;5057398;28;20210;-59
2020/12/20 04:06:59;;;;;;;15.33;10.60;;;7.40;99.90;;;;;;5057427;28;20222;-59
2020/12/20 04:09:25;;;;;;;15.73;10.83;;;7.40;99.90;;;;;;5056235;28;20211;-54
2020/12/20 04:11:51;;;;;;;14.47;10.17;;;7.40;99.90;;;;;;5053782;28;20688;-52
2020/12/20 04:14:18;;;;;;;14.07;8.30;;;7.30;99.90;;;;;;5053733;28;20209;-53
2020/12/20 04:16:44;;;;;;;11.33;8.10;;;7.30;99.90;;;;;;5054020;28;20191;-57
2020/12/20 04:19:10;;;;;;;19.97;13.33;;;7.40;99.90;;;;;;5054363;28;20199;-54
2020/12/20 04:21:37;;;;;;;24.63;21.97;;;7.40;99.90;;;;;;5053701;28;20598;-58
2020/12/20 04:24:04;;;;;;;15.87;10.43;;;7.40;99.90;;;;;;5051031;28;20195;-56
2020/12/20 04:26:30;;;;;;;13.20;8.83;;;7.40;99.90;;;;;;5039407;28;20223;-57
2020/12/20 04:28:56;;;;;;;12.30;8.07;;;7.40;99.90;;;;;;5053385;28;20213;-57
2020/12/20 04:31:24;;;;;;;12.53;8.47;;;7.30;99.90;;;;;;5054267;28;20593;-59
2020/12/20 04:33:50;;;;;;;14.77;9.17;;;7.30;99.90;;;;;;5053240;28;20231;-53
2020/12/20 04:36:17;;;;;;;14.17;10.60;;;7.30;99.90;;;;;;5053376;28;20826;-54
2020/12/20 04:38:44;;;;;;;12.67;8.50;;;7.40;99.90;;;;;;5053830;28;20202;-56
2020/12/20 04:41:11;;;;;;;11.80;7.93;;;7.40;99.90;;;;;;5053570;28;20195;-57
2020/12/20 04:43:38;;;;;;;14.33;8.33;;;7.40;99.90;;;;;;5053209;28;20223;-57
2020/12/20 04:46:05;;;;;;;14.13;8.70;;;7.40;99.90;;;;;;5053691;28;20205;-58
2020/12/20 04:48:36;;;;;;;12.27;7.93;;;7.40;99.90;;;;;;5053624;28;20199;-59
2020/12/20 04:51:03;;;;;;;12.37;8.27;;;7.30;99.90;;;;;;5053312;28;20261;-57
2020/12/20 04:53:30;;;;;;;18.07;13.43;;;7.30;99.90;;;;;;5052908;28;20300;-58
2020/12/20 04:56:02;;;;;;;17.47;11.83;;;7.20;99.90;;;;;;5053047;28;20257;-57
2020/12/20 04:58:28;;;;;;;16.23;9.47;;;7.30;99.90;;;;;;5049565;28;20209;-54
2020/12/20 05:00:54;;;;;;;14.33;9.23;;;7.20;99.90;;;;;;5052600;28;20689;-55
2020/12/20 05:03:21;;;;;;;13.50;8.13;;;7.20;99.90;;;;;;5052531;28;20273;-57
2020/12/20 05:05:47;;;;;;;17.07;10.17;;;7.30;99.90;;;;;;5052657;28;20206;-56
2020/12/20 05:08:14;;;;;;;15.47;8.77;;;7.30;99.90;;;;;;5052612;28;20223;-57
2020/12/20 05:10:42;;;;;;;12.37;8.93;;;7.20;99.90;;;;;;5052966;28;20267;-57
2020/12/20 05:13:09;;;;;;;15.00;8.90;;;7.20;99.90;;;;;;5053021;28;20272;-57
2020/12/20 05:15:35;;;;;;;12.77;8.23;;;7.30;99.90;;;;;;5052803;28;20286;-59
2020/12/20 05:18:05;;;;;;;13.53;8.70;;;7.20;99.90;;;;;;5052519;28;20211;-59
2020/12/20 05:20:39;;;;;;;14.90;9.17;;;7.30;99.90;;;;;;5052521;28;20630;-54
2020/12/20 05:23:07;;;;;;;13.17;8.57;;;7.20;99.90;;;;;;5051442;28;20219;-56
2020/12/20 05:25:34;;;;;;;16.13;9.20;;;7.20;99.90;;;;;;5052303;28;20199;-59
2020/12/20 05:28:13;;;;;;;13.80;8.60;;;7.10;99.90;;;;;;5052780;28;20223;-58
2020/12/20 05:30:41;;;;;;;13.73;8.43;;;7.20;99.90;;;;;;5052276;28;20206;-58
2020/12/20 05:33:08;;;;;;;14.97;8.73;;;7.20;99.90;;;;;;5052837;28;20231;-56
2020/12/20 05:35:36;;;;;;;15.33;9.73;;;7.20;99.90;;;;;;5049283;28;20603;-57
2020/12/20 05:38:04;;;;;;;14.53;8.93;;;7.30;99.90;;;;;;5051370;28;20195;-56
2020/12/20 05:40:32;;;;;;;14.37;8.63;;;7.40;99.90;;;;;;5051947;28;20209;-57
2020/12/20 05:43:01;;;;;;;13.57;8.53;;;7.50;99.90;;;;;;5044835;28;20229;-59
2020/12/20 05:45:30;;;;;;;14.60;8.87;;;7.50;99.90;;;;;;5051225;28;20195;-58
2020/12/20 05:47:57;;;;;;;12.67;8.13;;;7.40;99.90;;;;;;5052338;28;20219;-57
2020/12/20 05:50:28;;;;;;;13.77;8.70;;;7.40;99.90;;;;;;5051892;28;20206;-56
2020/12/20 05:53:02;;;;;;;15.63;9.60;;;7.40;99.90;;;;;;5096970;22;20297;-59
2020/12/20 05:55:35;;;;;;;19.97;16.00;;;7.40;99.90;;;;;;5062351;28;20213;-61
2020/12/20 05:58:09;;;;;;;16.83;10.47;;;7.40;99.90;;;;;;5054992;28;20249;-60
2020/12/20 06:00:37;;;;;;;14.37;8.97;;;7.50;99.90;;;;;;5051103;28;20194;-62
2020/12/20 06:03:05;;;;;;;14.90;8.53;;;7.50;99.90;;;;;;5052084;28;20221;-63
2020/12/20 06:05:34;;;;;;;13.60;8.50;;;7.40;99.90;;;;;;5048459;28;20199;-58
2020/12/20 06:08:05;;;;;;;12.87;8.40;;;7.50;99.90;;;;;;5049178;28;20219;-62
2020/12/20 06:10:38;;;;;;;13.97;10.10;;;7.50;99.90;;;;;;5051002;28;21714;-60
2020/12/20 06:13:05;;;;;;;15.07;9.57;;;7.50;99.90;;;;;;5051721;28;20227;-63
2020/12/20 06:15:35;;;;;;;18.03;13.40;;;7.60;99.90;;;;;;5045184;28;20203;-63
2020/12/20 06:18:08;;;;;;;16.77;10.70;;;7.60;99.90;;;;;;5051690;28;20199;-62
2020/12/20 06:20:47;;;;;;;14.50;10.20;;;7.60;99.90;;;;;;5037734;28;20195;-61
2020/12/20 06:23:17;;;;;;;16.37;8.93;;;7.60;99.90;;;;;;5051041;28;20222;-62
2020/12/20 06:25:44;;;;;;;18.87;8.87;;;7.60;99.90;;;;;;5034273;28;20192;-62
2020/12/20 06:28:15;;;;;;;22.03;15.63;;;7.60;99.90;;;;;;5045711;28;20223;-61
2020/12/20 06:30:42;;;;;;;23.47;17.67;;;7.60;99.90;;;;;;5034866;28;20196;-61
2020/12/20 06:33:15;;;;;;;18.87;14.07;;;7.60;99.90;;;;;;5031148;28;20220;-63
2020/12/20 06:35:42;;;;;;;17.07;11.27;;;7.50;99.90;;;;;;5047074;28;20199;-62
2020/12/20 06:38:12;;;;;;;15.57;10.97;;;7.50;99.90;;;;;;5051358;28;20260;-61
2020/12/20 06:40:43;;;;;;;15.23;10.10;;;7.50;99.90;;;;;;5042489;28;20207;-63
2020/12/20 06:43:10;;;;;;;13.50;8.73;;;7.50;99.90;;;;;;5050760;28;20617;-59
2020/12/20 06:45:41;;;;;;;14.03;8.50;;;7.50;99.90;;;;;;5049854;28;20673;-58
2020/12/20 06:48:10;;;;;;;16.27;9.73;;;7.50;99.90;;;;;;5050132;28;20282;-62
2020/12/20 06:50:47;;;;;;;14.10;8.93;;;7.50;99.90;;;;;;5037100;28;20199;-62
2020/12/20 06:53:15;;;;;;;16.53;11.77;;;7.50;99.90;;;;;;5033719;28;20248;-60
2020/12/20 06:55:41;;;;;;;14.17;10.03;;;7.50;99.90;;;;;;5050840;28;20199;-60
2020/12/20 06:58:16;;;;;;;14.57;10.00;;;7.40;99.90;;;;;;5049896;28;20209;-63
2020/12/20 07:00:51;;;;;;;15.27;9.53;;;7.30;99.90;;;;;;5031659;28;20230;-63
2020/12/20 07:03:38;;;;;;;14.00;9.97;;;7.40;99.90;;;;;;5032447;28;20268;-60
2020/12/20 07:06:26;;;;;;;18.20;11.53;;;7.30;99.90;;;;;;5043640;28;20207;-63
2020/12/20 07:08:57;;;;;;;15.83;11.03;;;7.30;99.90;;;;;;5032116;28;20279;-60
2020/12/20 07:11:25;;;;;;;16.13;9.37;;;7.10;99.90;;;;;;5039772;28;20196;-60
2020/12/20 07:13:54;;;;;;;14.37;8.63;;;7.10;99.90;;;;;;5033873;28;20249;-62
2020/12/20 07:16:22;;;;;;;13.27;8.67;;;7.20;99.90;;;;;;5050501;28;20289;-61
2020/12/20 07:18:54;;;;;;;12.83;8.50;;;7.20;99.90;;;;;;5042842;28;20207;-58
2020/12/20 07:21:45;;;;;;;14.73;8.97;;;7.30;99.90;;;;;;5050566;28;20740;-60
2020/12/20 07:24:16;;;;;;;13.37;8.10;;;7.20;99.90;;;;;;5042436;28;20222;-62
2020/12/20 07:26:42;;;;;;;13.90;8.53;;;7.20;99.90;;;;;;5031578;28;20223;-62
2020/12/20 07:29:08;;;;;;;15.33;9.37;;;7.10;99.90;;;;;;5036405;28;20201;-62
2020/12/20 07:31:35;;;;;;;13.07;8.73;;;7.10;99.90;;;;;;5050759;28;20205;-62
2020/12/20 07:34:03;;;;;;;15.20;9.63;;;7.20;99.90;;;;;;5045874;28;20592;-62
2020/12/20 07:36:30;;;;;;;14.80;8.90;;;7.10;99.90;;;;;;5041487;28;20691;-60
2020/12/20 07:38:56;;;;;;;13.47;8.60;;;7.10;99.90;;;;;;5050613;28;20581;-61
2020/12/20 07:41:24;;;;;;;14.40;8.90;;;7.10;99.90;;;;;;5050359;28;20845;-60
2020/12/20 07:43:52;;;;;;;15.80;9.10;;;7.10;99.90;;;;;;5046926;28;20225;-60
2020/12/20 07:46:19;;;;;;;14.67;9.03;;;7.10;99.90;;;;;;5051410;28;20264;-58
2020/12/20 07:48:46;;;;;;;14.57;9.00;;;7.10;99.90;;;;;;5054010;28;20233;-61
2020/12/20 07:51:17;;;;;;;13.23;8.77;;;7.20;99.90;;;;;;5052466;28;20704;-60
2020/12/20 07:53:45;;;;;;;15.20;9.63;;;7.20;99.90;;;;;;5052999;28;20237;-63
2020/12/20 07:56:20;;;;;;;16.17;10.90;;;7.00;99.90;;;;;;5043489;28;20199;-61
2020/12/20 07:58:46;;;;;;;16.40;10.47;;;7.00;99.90;;;;;;5053965;28;20206;-60
2020/12/20 08:01:13;;;;;;;15.17;10.63;;;7.10;99.90;;;;;;5051130;28;20211;-60
2020/12/20 08:03:39;;;;;;;14.30;9.87;;;7.10;99.90;;;;;;5053013;28;20709;-63
2020/12/20 08:06:07;;;;;;;16.97;11.67;;;7.10;99.90;;;;;;5052488;28;20210;-61
2020/12/20 08:08:35;;;;;;;14.03;9.23;;;7.10;99.90;;;;;;5053464;28;20230;-61
2020/12/20 08:11:16;;;;;;;15.97;9.27;;;7.20;99.90;;;;;;5041867;28;20210;-61
2020/12/20 08:13:50;;;;;;;14.20;8.80;;;7.30;99.90;;;;;;5052917;28;20255;-60
2020/12/20 08:16:21;;;;;;;17.20;9.70;;;7.30;99.90;;;;;;5044081;28;20199;-61
2020/12/20 08:18:52;;;;;;;15.83;9.67;;;7.40;99.90;;;;;;5052531;28;20237;-63
2020/12/20 08:21:23;;;;;;;14.20;9.00;;;7.40;99.90;;;;;;5045974;28;20203;-61
2020/12/20 08:23:50;;;;;;;18.40;10.87;;;7.40;99.90;;;;;;5046556;28;20215;-62
2020/12/20 08:26:29;;;;;;;17.47;10.77;;;7.40;99.90;;;;;;5051797;28;20229;-61
2020/12/20 08:28:57;;;;;;;19.67;13.73;;;7.40;99.90;;;;;;5053400;28;20202;-61
2020/12/20 08:31:23;;;;;;;15.90;10.60;;;7.40;99.90;;;;;;5051530;28;20210;-60
2020/12/20 08:33:49;;;;;;;16.70;11.40;;;7.40;99.90;;;;;;5052715;28;20264;-59
2020/12/20 08:36:21;;;;;;;16.70;11.40;;;7.40;99.90;;;;;;5048359;28;20219;-61
2020/12/20 08:38:47;;;;;;;15.13;10.33;;;7.50;99.90;;;;;;5052720;28;20906;-60
2020/12/20 08:41:22;;;;;;;16.67;10.00;;;7.50;99.90;;;;;;5052427;28;20217;-61
2020/12/20 08:44:00;;;;;;;15.10;9.73;;;7.50;99.90;;;;;;5051289;28;21260;-60
2020/12/20 08:46:31;;;;;;;19.00;12.73;;;7.60;99.90;;;;;;5050955;28;20229;-61
2020/12/20 08:49:14;;;;;;;19.63;12.87;;;7.60;99.90;;;;;;5052263;28;20207;-61
2020/12/20 08:51:41;;;;;;;17.97;12.03;;;7.60;99.90;;;;;;5048076;28;20553;-61
2020/12/20 08:54:11;;;;;;;18.97;12.63;;;7.70;99.90;;;;;;5051503;28;20238;-62
2020/12/20 08:56:52;;;;;;;17.57;11.57;;;7.60;99.90;;;;;;5046824;28;20222;-62
2020/12/20 08:59:25;;;;;;;16.97;11.03;;;7.60;99.90;;;;;;5047897;28;20232;-63
2020/12/20 09:01:52;;;;;;;18.97;12.17;;;7.60;99.90;;;;;;5051694;28;20693;-60
2020/12/20 09:04:18;;;;;;;17.13;10.70;;;7.60;99.90;;;;;;5051641;28;20279;-62
2020/12/20 09:06:59;;;;;;;17.33;10.87;;;7.60;99.90;;;;;;5051755;28;20313;-62
2020/12/20 09:09:26;;;;;;;16.23;10.27;;;7.60;99.90;;;;;;5049971;28;20253;-60
2020/12/20 09:11:53;;;;;;;17.17;11.27;;;7.60;99.90;;;;;;5051172;28;20203;-63
2020/12/20 09:14:19;;;;;;;16.73;10.90;;;7.70;99.90;;;;;;5047685;28;20222;-63
2020/12/20 09:16:46;;;;;;;18.37;11.30;;;7.80;99.90;;;;;;5051821;28;20578;-61
2020/12/20 09:19:13;;;;;;;17.27;10.77;;;7.80;99.90;;;;;;5052340;28;20732;-60
2020/12/20 09:21:39;;;;;;;17.77;11.53;;;7.90;99.90;;;;;;5051866;28;20203;-63
2020/12/20 09:24:06;;;;;;;18.70;12.43;;;7.90;99.90;;;;;;5050732;28;20229;-61
2020/12/20 09:26:32;;;;;;;18.00;11.07;;;7.90;99.90;;;;;;5048051;28;20244;-60
2020/12/20 09:29:06;;;;;;;19.20;11.20;;;8.00;99.90;;;;;;5052019;28;20202;-61
2020/12/20 09:31:33;;;;;;;17.40;10.60;;;8.00;99.90;;;;;;5044339;28;20210;-62
2020/12/20 09:34:02;;;;;;;17.30;10.53;;;8.00;99.90;;;;;;5048164;28;20219;-62
2020/12/20 09:36:29;;;;;;;18.03;10.70;;;8.00;99.90;;;;;;5047555;28;20206;-60
2020/12/20 09:38:57;;;;;;;16.27;10.80;;;8.10;99.90;;;;;;5050093;28;20208;-60
2020/12/20 09:41:25;;;;;;;16.27;10.87;;;8.10;99.90;;;;;;5049160;28;20711;-64
2020/12/20 09:43:53;;;;;;;17.53;10.53;;;8.10;99.90;;;;;;5048159;28;20534;-61
2020/12/20 09:46:22;;;;;;;18.70;10.80;;;8.10;99.90;;;;;;5051624;28;20207;-62
2020/12/20 09:48:49;;;;;;;17.57;10.80;;;8.10;99.90;;;;;;5050891;28;20215;-61
2020/12/20 09:51:16;;;;;;;17.13;10.63;;;8.10;99.90;;;;;;5051762;28;20202;-62
2020/12/20 09:53:42;;;;;;;17.10;11.40;;;8.10;99.90;;;;;;5045567;28;20226;-61
2020/12/20 09:56:08;;;;;;;17.30;10.87;;;8.20;99.90;;;;;;5047459;28;20195;-63
2020/12/20 09:58:35;;;;;;;18.00;10.60;;;8.20;99.90;;;;;;5044823;28;20616;-56
2020/12/20 10:01:01;;;;;;;18.77;10.70;;;8.20;99.90;;;;;;5051249;28;20199;-58
2020/12/20 10:03:29;;;;;;;15.20;9.63;;;8.20;99.90;;;;;;5049997;28;20226;-63
2020/12/20 10:05:59;;;;;;;16.33;10.27;;;8.20;99.90;;;;;;5051340;28;20280;-59
2020/12/20 10:08:26;;;;;;;17.60;10.30;;;8.30;99.90;;;;;;5049722;28;20219;-61
2020/12/20 10:10:53;;;;;;;18.33;10.27;;;8.30;99.90;;;;;;5051527;28;20205;-61
2020/12/20 10:13:20;;;;;;;16.40;10.03;;;8.30;99.90;;;;;;5045464;28;20220;-61
2020/12/20 10:15:46;;;;;;;16.60;10.47;;;8.30;99.90;;;;;;5048156;28;20650;-64
2020/12/20 10:18:13;;;;;;;16.03;9.97;;;8.30;99.90;;;;;;5047052;28;20199;-60
2020/12/20 10:20:40;;;;;;;17.87;11.03;;;8.30;99.90;;;;;;5047849;28;20195;-61
2020/12/20 10:23:06;;;;;;;18.57;10.77;;;8.30;99.90;;;;;;5047368;28;20222;-65
2020/12/20 10:25:33;;;;;;;16.33;9.70;;;8.30;99.90;;;;;;5049309;28;20199;-62
2020/12/20 10:28:00;;;;;;;19.83;11.00;;;8.30;99.90;;;;;;5043852;28;20780;-62
2020/12/20 10:30:26;;;;;;;18.50;10.30;;;8.30;99.90;;;;;;5042874;28;20200;-62
2020/12/20 10:32:54;;;;;;;17.53;10.20;;;8.30;99.90;;;;;;5042718;28;20227;-64
2020/12/20 10:35:23;;;;;;;15.50;9.83;;;8.40;99.90;;;;;;5038137;28;20195;-63
2020/12/20 10:37:51;;;;;;;14.80;9.63;;;8.40;99.90;;;;;;5034606;28;20199;-64
2020/12/20 10:40:18;;;;;;;15.87;10.17;;;8.40;99.90;;;;;;5037512;28;20265;-64
2020/12/20 10:42:45;;;;;;;15.00;9.10;;;8.50;99.90;;;;;;5034888;28;20277;-64
2020/12/20 10:45:12;;;;;;;17.57;9.70;;;8.50;99.90;;;;;;5048730;28;20213;-60
2020/12/20 10:47:38;;;;;;;18.00;9.77;;;8.60;99.90;;;;;;5042423;28;20225;-64
2020/12/20 10:50:05;;;;;;;18.93;9.30;;;8.60;99.90;;;;;;5040011;28;20299;-62
2020/12/20 10:52:31;;;;;;;16.13;10.17;;;8.60;99.90;;;;;;5036592;28;20207;-62
2020/12/20 10:55:00;;;;;;;18.20;10.40;;;8.60;99.90;;;;;;5042216;28;20254;-64
2020/12/20 10:57:26;;;;;;;15.63;9.63;;;8.60;99.90;;;;;;5035453;28;20195;-62
2020/12/20 10:59:52;;;;;;;15.37;9.83;;;8.60;99.90;;;;;;5036387;28;20662;-63
2020/12/20 11:02:19;;;;;;;14.93;9.67;;;8.60;99.90;;;;;;5038490;28;20724;-64
2020/12/20 11:04:45;;;;;;;16.37;9.47;;;8.60;99.90;;;;;;5040304;28;20223;-62
2020/12/20 11:07:11;;;;;;;16.23;10.00;;;8.60;99.90;;;;;;5037435;28;20368;-65
2020/12/20 11:09:38;;;;;;;14.60;9.80;;;8.60;99.90;;;;;;5038620;28;20689;-64
2020/12/20 11:12:05;;;;;;;15.90;9.50;;;8.60;99.90;;;;;;5035558;28;20200;-64
2020/12/20 11:14:32;;;;;;;16.00;10.07;;;8.70;99.90;;;;;;5036609;28;20712;-65
2020/12/20 11:16:59;;;;;;;15.40;9.60;;;8.60;99.90;;;;;;5034994;28;20627;-62
2020/12/20 11:19:26;;;;;;;14.80;9.10;;;8.70;99.90;;;;;;5042788;28;20799;-65
2020/12/20 11:21:53;;;;;;;17.77;9.87;;;8.70;99.90;;;;;;5042331;28;20572;-62
2020/12/20 11:24:20;;;;;;;15.67;9.37;;;8.70;99.90;;;;;;5044332;28;20303;-60
2020/12/20 11:26:48;;;;;;;14.00;9.50;;;8.80;99.90;;;;;;5041552;28;20259;-61
2020/12/20 11:29:16;;;;;;;13.77;9.30;;;8.80;99.90;;;;;;5041217;28;20877;-64
2020/12/20 11:31:43;;;;;;;16.33;9.47;;;8.90;99.90;;;;;;5038356;28;20199;-65
2020/12/20 11:34:10;;;;;;;15.63;9.40;;;8.90;99.90;;;;;;5042711;28;20223;-62
2020/12/20 11:36:37;;;;;;;14.27;8.93;;;8.90;99.90;;;;;;5044548;28;20204;-64
2020/12/20 11:39:04;;;;;;;15.57;9.80;;;9.00;99.90;;;;;;5045807;28;20206;-65
2020/12/20 11:41:31;;;;;;;14.73;9.10;;;9.10;99.90;;;;;;5044287;28;20208;-64
2020/12/20 11:43:59;;;;;;;13.07;8.57;;;9.10;99.90;;;;;;5039121;28;20231;-61
2020/12/20 11:46:26;;;;;;;13.57;8.67;;;9.10;99.90;;;;;;5042369;28;20658;-64
2020/12/20 11:48:52;;;;;;;16.70;9.70;;;9.20;99.90;;;;;;5042596;28;20229;-64
2020/12/20 11:51:20;;;;;;;16.03;9.17;;;9.20;99.90;;;;;;5050168;28;20206;-64
2020/12/20 11:53:46;;;;;;;14.10;8.90;;;9.30;99.90;;;;;;5040157;28;20226;-64
2020/12/20 11:56:14;;;;;;;14.37;9.37;;;9.20;99.90;;;;;;5042277;28;20204;-63
2020/12/20 11:58:42;;;;;;;13.07;8.57;;;9.30;99.90;;;;;;5042779;28;20225;-62
2020/12/20 12:01:08;;;;;;;14.80;10.43;;;9.40;99.90;;;;;;5042651;28;20207;-63
2020/12/20 12:03:35;;;;;;;14.73;9.60;;;9.40;99.90;;;;;;5038470;28;20223;-64
2020/12/20 12:06:02;;;;;;;14.27;9.53;;;9.50;99.90;;;;;;5038947;28;20361;-62
2020/12/20 12:08:28;;;;;;;14.60;9.30;;;9.40;99.90;;;;;;5039556;28;20228;-64
2020/12/20 12:10:55;;;;;;;14.53;8.83;;;9.40;99.90;;;;;;5039107;28;20691;-61
2020/12/20 12:13:23;;;;;;;13.50;8.37;;;9.40;99.90;;;;;;5043874;28;20693;-64
2020/12/20 12:15:49;;;;;;;13.87;8.63;;;9.50;99.90;;;;;;5041734;28;20199;-62
2020/12/20 12:20:50;;;;;;;13.83;9.03;;;9.50;99.90;;;;;;5049847;28;20211;-58
2020/12/20 12:23:16;;;;;;;17.90;12.20;;;9.40;99.90;;;;;;5050921;28;20209;-56
2020/12/20 12:25:43;;;;;;;15.63;11.30;;;9.50;99.90;;;;;;5051486;28;20207;-58
2020/12/20 12:28:10;;;;;;;16.07;10.70;;;9.50;99.90;;;;;;5052764;28;20598;-55
2020/12/20 12:30:36;;;;;;;14.47;9.53;;;9.50;99.90;;;;;;5050372;28;20209;-55
2020/12/20 12:33:03;;;;;;;12.50;8.23;;;9.50;99.90;;;;;;5053024;28;20207;-56
2020/12/20 12:35:29;;;;;;;12.17;7.93;;;9.50;99.90;;;;;;5051371;28;20315;-56
2020/12/20 12:37:56;;;;;;;10.60;7.40;;;9.50;99.90;;;;;;5052407;28;20210;-56
2020/12/20 12:40:22;;;;;;;15.33;8.43;;;9.50;99.90;;;;;;5052615;28;20225;-59
2020/12/20 12:42:49;;;;;;;13.07;8.30;;;9.50;99.90;;;;;;5052914;28;20303;-55
2020/12/20 12:45:17;;;;;;;13.80;8.70;;;9.60;99.90;;;;;;5049092;28;20229;-57
2020/12/20 12:47:43;;;;;;;14.70;10.23;;;9.60;99.90;;;;;;5047464;28;20223;-57
2020/12/20 12:50:10;;;;;;;15.27;10.87;;;9.60;99.90;;;;;;5051891;28;20226;-57
2020/12/20 12:52:36;;;;;;;14.80;9.37;;;9.50;99.90;;;;;;5051067;28;20203;-57